Charlotte, NC (28242)

4:39 PM EDT on August 31, 2015 (GMT -0400)
Dilworth-Latta Park | | Change Station
CLOSE
Current Station
Personal Weather Station
Location: Charlotte, NC
Elevation: 715 ft
Nearby Weather Stations

Elev 715 ft 35.22 °N, 80.86 °W | Updated 10 seconds ago

Overcast
Overcast
83.4 °F
Feels Like 88 °F
N
0.0
Wind Variable Wind from ESE
Gusts 0.0 mph

Today
High -- | Low -- °F
--% Chance of Precip.
Yesterday
High -- | Low -- °F
Precip. -- in
6:55 AM 7:52 PM
Waning Gibbous, 94% visible
Pressure 30.05 in
Visibility 10.0 miles
Clouds Mostly Cloudy 4300 ft
Heat Index 88 °F
Dew Point 70 °F
Humidity 64%
Rainfall 0.02 in
Snow Depth Not available.
UV 4 out of 12
Pollen 5.60 out of 12
Air Quality Not available.
Flu Activity Not available.
METAR KCLT 311952Z 00000KT 10SM BKN043 31/17 A3007 RMK AO2 SLP174 T03060172
Pressure 30.05 in
Visibility 10.0 miles
Clouds Mostly Cloudy 4300 ft
Heat Index 88 °F
Dew Point 70 °F
Humidity 64%
Rainfall 0.02 in
Snow Depth Not available.
UV 4 out of 12
Pollen 5.60 out of 12
Air Quality Not available.
Flu Activity Not available.
METAR KCLT 311952Z 00000KT 10SM BKN043 31/17 A3007 RMK AO2 SLP174 T03060172

10-Day Weather Forecast

×

Almanac

Astronomy

Aug. 31, 2015 Rise Set
Actual Time
Civil Twilight
Nautical Twilight
Astronomical Twilight
Moon
Length of Visible Light
Length of Day
Tomorrow will be .
, % of the Moon is Illuminated

Today's Extremes

State Highs State Lows

Community

WunderPhotos

Upload Photos

1,851,357 photos uploaded!

WunderBlogs® & News

Nearby

Air Quality

  Air Quality AQ Index Pollutant
Not available.

Snow Depth

Station Depth Elevation

Earthquake Activity

City Distance Mag. Time & Date
Minimum magnitude displayed is 2.5.

Coastal Water Temperatures

Place Temperature

Stations

Nearby Weather Stations

Station Location Temp. Windchill Dew Point Humidity Wind Precip. Elev Updated Type